Clarkston, Utah
Current Conditions -  °F | °C
As of 2:21 AM on Sunday 26 Oct 2014 (Local Time) from KLGU Reporting Station
Light Rain Light Rain  
Wind Chill: 52°   Ceiling: 7000
Heat Index: 52°   Visibility: 10mi
Dew Point: 41°   Wind: 31mph
Humidity: 66%   Direction: 10°N
Pressure: 29.93"   Gusts: 43mph
Location:  41.92°N, 112.05°W
Report Text: KLGU 260821Z AUTO 01027G37KT 10SM -RA BKN070 OVC085 11/05 A2993 RMK AO2 PK WND 01037/0819 WSHFT 0803 P0000 T01110050 TSNO
Loading
Personal Weather Stations






























Interactive Weather Map
Tropical Storm Tracking
New forecast layout! Learn more

10-Day Weather Forecast

Advertisements
Track Severe Weather on mobile